New Norfolk, Australia
Current Conditions -  °F | °C
As of 12:00 AM on Tuesday 21 Oct 2014 (Local Time) from YMHB Reporting Station
Broken Clouds Broken Clouds  
Wind Chill: 50°   Ceiling: 3800
Heat Index: 50°   Visibility: 6mi
Dew Point: 37°   Wind: 6mph
Humidity: 62%   Direction: 30°NNE
Pressure: 30.53"   Gusts: NA
Location:  42.78°S, 147.06°E
Report Text: YMHB 201300Z 03005KT 9999 BKN038 10/03 Q1034
Loading
Personal Weather Stations






























Interactive Weather Map
Tropical Storm Tracking
New forecast layout! Learn more

10-Day Weather Forecast

Advertisements
Track Severe Weather on mobile